sensor_id;sensor_type;location;lat;lon;timestamp;pressure;altitude;pressure_sealevel;temperature;humidity
84703;BME280;74927;50.988;11.318;2024-02-15T00:02:22;99397.72;;;9.24;93.04
84703;BME280;74927;50.988;11.318;2024-02-15T00:04:47;99392.53;;;9.24;93.02
84703;BME280;74927;50.988;11.318;2024-02-15T00:07:19;99399.47;;;9.25;93.81
84703;BME280;74927;50.988;11.318;2024-02-15T00:09:50;99392.69;;;9.32;92.83
84703;BME280;74927;50.988;11.318;2024-02-15T00:12:16;99397.78;;;9.27;93.36
84703;BME280;74927;50.988;11.318;2024-02-15T00:14:51;99395.13;;;9.24;93.33
84703;BME280;74927;50.988;11.318;2024-02-15T00:17:16;99400.31;;;9.24;93.00
84703;BME280;74927;50.988;11.318;2024-02-15T00:19:43;99400.34;;;9.26;92.55
84703;BME280;74927;50.988;11.318;2024-02-15T00:22:09;99415.06;;;9.25;93.13
84703;BME280;74927;50.988;11.318;2024-02-15T00:24:37;99409.97;;;9.31;93.45
84703;BME280;74927;50.988;11.318;2024-02-15T00:27:02;99397.78;;;9.27;92.88
84703;BME280;74927;50.988;11.318;2024-02-15T00:29:29;99402.09;;;9.27;93.47
84703;BME280;74927;50.988;11.318;2024-02-15T00:31:55;99397.75;;;9.26;92.92
84703;BME280;74927;50.988;11.318;2024-02-15T00:34:20;99397.69;;;9.23;93.56
84703;BME280;74927;50.988;11.318;2024-02-15T00:36:46;99402.81;;;9.21;92.93
84703;BME280;74927;50.988;11.318;2024-02-15T00:39:11;99408.00;;;9.20;92.66
84703;BME280;74927;50.988;11.318;2024-02-15T00:41:41;99401.03;;;9.17;93.34
84703;BME280;74927;50.988;11.318;2024-02-15T00:44:09;99406.28;;;9.20;92.86
84703;BME280;74927;50.988;11.318;2024-02-15T00:46:36;99403.72;;;9.22;93.81
84703;BME280;74927;50.988;11.318;2024-02-15T00:49:01;99402.78;;;9.18;93.69
84703;BME280;74927;50.988;11.318;2024-02-15T00:51:27;99397.63;;;9.21;93.93
84703;BME280;74927;50.988;11.318;2024-02-15T00:53:53;99400.22;;;9.21;93.94
84703;BME280;74927;50.988;11.318;2024-02-15T00:56:18;99394.19;;;9.21;93.59
84703;BME280;74927;50.988;11.318;2024-02-15T00:58:44;99404.53;;;9.19;93.14
84703;BME280;74927;50.988;11.318;2024-02-15T01:01:09;99402.81;;;9.21;93.43
84703;BME280;74927;50.988;11.318;2024-02-15T01:03:35;99402.72;;;9.15;93.74
84703;BME280;74927;50.988;11.318;2024-02-15T01:06:01;99404.47;;;9.16;93.00
84703;BME280;74927;50.988;11.318;2024-02-15T01:08:30;99410.50;;;9.15;93.02
84703;BME280;74927;50.988;11.318;2024-02-15T01:10:56;99406.22;;;9.17;92.90
84703;BME280;74927;50.988;11.318;2024-02-15T01:13:22;99405.31;;;9.15;93.39
84703;BME280;74927;50.988;11.318;2024-02-15T01:15:50;99400.16;;;9.17;93.69
84703;BME280;74927;50.988;11.318;2024-02-15T01:18:16;99401.88;;;9.16;93.86
84703;BME280;74927;50.988;11.318;2024-02-15T01:20:41;99406.22;;;9.17;93.24
84703;BME280;74927;50.988;11.318;2024-02-15T01:23:06;99398.50;;;9.20;93.15
84703;BME280;74927;50.988;11.318;2024-02-15T01:25:39;99399.31;;;9.19;93.13
84703;BME280;74927;50.988;11.318;2024-02-15T01:28:08;99400.22;;;9.20;93.00
84703;BME280;74927;50.988;11.318;2024-02-15T01:30:40;99398.38;;;9.15;94.37
84703;BME280;74927;50.988;11.318;2024-02-15T01:33:09;99400.94;;;9.12;94.00
84703;BME280;74927;50.988;11.318;2024-02-15T01:35:48;99399.28;;;9.16;93.68
84703;BME280;74927;50.988;11.318;2024-02-15T01:38:14;99398.59;;;9.25;93.46
84703;BME280;74927;50.988;11.318;2024-02-15T01:40:47;99397.63;;;9.21;92.98
84703;BME280;74927;50.988;11.318;2024-02-15T01:43:16;99396.75;;;9.19;93.77
84703;BME280;74927;50.988;11.318;2024-02-15T01:45:44;99394.09;;;9.16;93.02
84703;BME280;74927;50.988;11.318;2024-02-15T01:48:13;99395.75;;;9.14;92.87
84703;BME280;74927;50.988;11.318;2024-02-15T01:50:58;99393.13;;;9.11;93.97
84703;BME280;74927;50.988;11.318;2024-02-15T01:53:24;99392.16;;;9.07;94.04
84703;BME280;74927;50.988;11.318;2024-02-15T01:55:57;99387.91;;;9.11;93.05
84703;BME280;74927;50.988;11.318;2024-02-15T01:58:32;99389.72;;;9.15;92.97
84703;BME280;74927;50.988;11.318;2024-02-15T02:01:04;99387.97;;;9.12;93.82
84703;BME280;74927;50.988;11.318;2024-02-15T02:03:30;99389.25;;;9.33;93.14
84703;BME280;74927;50.988;11.318;2024-02-15T02:05:56;99387.41;;;9.29;92.15
84703;BME280;74927;50.988;11.318;2024-02-15T02:08:21;99382.41;;;9.37;92.40
84703;BME280;74927;50.988;11.318;2024-02-15T02:10:47;99376.28;;;9.34;91.65
84703;BME280;74927;50.988;11.318;2024-02-15T02:13:23;99377.19;;;9.35;91.51
84703;BME280;74927;50.988;11.318;2024-02-15T02:16:04;99377.97;;;9.32;91.76
84703;BME280;74927;50.988;11.318;2024-02-15T02:18:45;99379.63;;;9.27;92.28
84703;BME280;74927;50.988;11.318;2024-02-15T02:21:12;99373.47;;;9.22;92.75
84703;BME280;74927;50.988;11.318;2024-02-15T02:23:40;99385.66;;;9.26;92.75
84703;BME280;74927;50.988;11.318;2024-02-15T02:26:07;99389.09;;;9.25;92.52
84703;BME280;74927;50.988;11.318;2024-02-15T02:28:35;99387.34;;;9.24;92.84
84703;BME280;74927;50.988;11.318;2024-02-15T02:31:01;99384.81;;;9.29;92.66
84703;BME280;74927;50.988;11.318;2024-02-15T02:33:48;99383.06;;;9.26;93.83
84703;BME280;74927;50.988;11.318;2024-02-15T02:36:14;99384.78;;;9.26;93.19
84703;BME280;74927;50.988;11.318;2024-02-15T02:38:40;99384.84;;;9.30;93.19
84703;BME280;74927;50.988;11.318;2024-02-15T02:41:16;99382.31;;;9.32;92.66
84703;BME280;74927;50.988;11.318;2024-02-15T02:43:47;99380.47;;;9.26;92.95
84703;BME280;74927;50.988;11.318;2024-02-15T02:46:13;99376.06;;;9.22;93.69
84703;BME280;74927;50.988;11.318;2024-02-15T02:48:39;99375.97;;;9.19;93.62
84703;BME280;74927;50.988;11.318;2024-02-15T02:51:07;99377.69;;;9.19;93.58
84703;BME280;74927;50.988;11.318;2024-02-15T02:53:36;99381.09;;;9.14;93.91
84703;BME280;74927;50.988;11.318;2024-02-15T02:56:02;99372.41;;;9.12;93.48
84703;BME280;74927;50.988;11.318;2024-02-15T02:58:27;99370.72;;;9.14;93.78
84703;BME280;74927;50.988;11.318;2024-02-15T03:00:54;99363.91;;;9.20;93.46
84703;BME280;74927;50.988;11.318;2024-02-15T03:03:29;99369.97;;;9.20;93.58
84703;BME280;74927;50.988;11.318;2024-02-15T03:05:55;99365.66;;;9.22;92.98
84703;BME280;74927;50.988;11.318;2024-02-15T03:08:21;99370.75;;;9.18;93.37
84703;BME280;74927;50.988;11.318;2024-02-15T03:10:47;99373.34;;;9.16;92.91
84703;BME280;74927;50.988;11.318;2024-02-15T03:13:19;99379.47;;;9.21;93.64
84703;BME280;74927;50.988;11.318;2024-02-15T03:15:48;99369.22;;;9.26;93.68
84703;BME280;74927;50.988;11.318;2024-02-15T03:18:17;99375.34;;;9.29;93.07
84703;BME280;74927;50.988;11.318;2024-02-15T03:20:43;99379.59;;;9.26;92.86
84703;BME280;74927;50.988;11.318;2024-02-15T03:23:09;99372.66;;;9.26;92.77
84703;BME280;74927;50.988;11.318;2024-02-15T03:25:34;99378.84;;;9.31;92.90
84703;BME280;74927;50.988;11.318;2024-02-15T03:28:00;99369.31;;;9.32;92.83
84703;BME280;74927;50.988;11.318;2024-02-15T03:30:32;99382.25;;;9.30;92.76
84703;BME280;74927;50.988;11.318;2024-02-15T03:33:03;99385.00;;;9.38;92.81
84703;BME280;74927;50.988;11.318;2024-02-15T03:35:31;99376.44;;;9.41;92.55
84703;BME280;74927;50.988;11.318;2024-02-15T03:37:57;99377.38;;;9.46;92.50
84703;BME280;74927;50.988;11.318;2024-02-15T03:40:24;99381.81;;;9.51;92.33
84703;BME280;74927;50.988;11.318;2024-02-15T03:42:53;99383.66;;;9.56;92.17
84703;BME280;74927;50.988;11.318;2024-02-15T03:45:19;99379.31;;;9.56;92.42
84703;BME280;74927;50.988;11.318;2024-02-15T03:47:45;99385.34;;;9.55;91.78
84703;BME280;74927;50.988;11.318;2024-02-15T03:50:12;99377.63;;;9.58;91.97
84703;BME280;74927;50.988;11.318;2024-02-15T03:52:49;99372.69;;;9.72;90.93
84703;BME280;74927;50.988;11.318;2024-02-15T03:55:18;99370.06;;;9.69;90.31
84703;BME280;74927;50.988;11.318;2024-02-15T03:57:43;99373.44;;;9.66;91.29
84703;BME280;74927;50.988;11.318;2024-02-15T04:00:10;99388.09;;;9.61;91.82
84703;BME280;74927;50.988;11.318;2024-02-15T04:02:36;99384.59;;;9.59;91.26
84703;BME280;74927;50.988;11.318;2024-02-15T04:05:02;99382.00;;;9.61;91.40
84703;BME280;74927;50.988;11.318;2024-02-15T04:07:36;99391.41;;;9.54;91.53
84703;BME280;74927;50.988;11.318;2024-02-15T04:10:02;99378.66;;;9.65;91.57
84703;BME280;74927;50.988;11.318;2024-02-15T04:12:27;99382.94;;;9.64;91.08
84703;BME280;74927;50.988;11.318;2024-02-15T04:14:56;99389.78;;;9.59;91.42
84703;BME280;74927;50.988;11.318;2024-02-15T04:17:35;99392.34;;;9.58;91.41
84703;BME280;74927;50.988;11.318;2024-02-15T04:20:07;99388.81;;;9.54;91.43
84703;BME280;74927;50.988;11.318;2024-02-15T04:22:34;99389.63;;;9.53;92.18
84703;BME280;74927;50.988;11.318;2024-02-15T04:25:06;99394.00;;;9.54;92.17
84703;BME280;74927;50.988;11.318;2024-02-15T04:27:35;99389.03;;;9.66;91.37
84703;BME280;74927;50.988;11.318;2024-02-15T04:30:02;99400.22;;;9.62;91.65
84703;BME280;74927;50.988;11.318;2024-02-15T04:32:30;99401.06;;;9.61;91.40
84703;BME280;74927;50.988;11.318;2024-02-15T04:35:01;99401.06;;;9.63;91.69
84703;BME280;74927;50.988;11.318;2024-02-15T04:37:28;99401.03;;;9.60;92.19
84703;BME280;74927;50.988;11.318;2024-02-15T04:39:55;99395.94;;;9.66;91.40
84703;BME280;74927;50.988;11.318;2024-02-15T04:42:24;99393.31;;;9.64;91.76
84703;BME280;74927;50.988;11.318;2024-02-15T04:44:58;99389.94;;;9.67;91.46
84703;BME280;74927;50.988;11.318;2024-02-15T04:47:23;99393.31;;;9.64;91.65
84703;BME280;74927;50.988;11.318;2024-02-15T04:49:49;99401.97;;;9.63;91.52
84703;BME280;74927;50.988;11.318;2024-02-15T04:52:14;99407.22;;;9.66;91.99
84703;BME280;74927;50.988;11.318;2024-02-15T04:54:40;99397.72;;;9.68;91.91
84703;BME280;74927;50.988;11.318;2024-02-15T04:57:05;99400.31;;;9.68;92.10
84703;BME280;74927;50.988;11.318;2024-02-15T04:59:33;99399.41;;;9.66;91.63
84703;BME280;74927;50.988;11.318;2024-02-15T05:02:00;99399.44;;;9.68;91.68
84703;BME280;74927;50.988;11.318;2024-02-15T05:04:26;99387.44;;;9.73;92.26
84703;BME280;74927;50.988;11.318;2024-02-15T05:06:51;99390.00;;;9.71;91.50
84703;BME280;74927;50.988;11.318;2024-02-15T05:09:18;99396.81;;;9.66;92.15
84703;BME280;74927;50.988;11.318;2024-02-15T05:11:44;99390.00;;;9.71;92.85
84703;BME280;74927;50.988;11.318;2024-02-15T05:14:13;99397.91;;;9.78;92.36
84703;BME280;74927;50.988;11.318;2024-02-15T05:16:46;99393.53;;;9.75;92.26
84703;BME280;74927;50.988;11.318;2024-02-15T05:19:14;99394.47;;;9.79;92.50
84703;BME280;74927;50.988;11.318;2024-02-15T05:21:40;99394.53;;;9.83;92.33
84703;BME280;74927;50.988;11.318;2024-02-15T05:24:06;99392.88;;;9.85;92.30
84703;BME280;74927;50.988;11.318;2024-02-15T05:26:31;99391.97;;;9.85;92.09
84703;BME280;74927;50.988;11.318;2024-02-15T05:29:00;99395.38;;;9.81;91.82
84703;BME280;74927;50.988;11.318;2024-02-15T05:31:26;99398.97;;;9.89;91.73
84703;BME280;74927;50.988;11.318;2024-02-15T05:33:53;99400.56;;;9.81;92.42
84703;BME280;74927;50.988;11.318;2024-02-15T05:36:20;99400.50;;;9.78;91.74
84703;BME280;74927;50.988;11.318;2024-02-15T05:38:47;99401.38;;;9.77;91.81
84703;BME280;74927;50.988;11.318;2024-02-15T05:41:13;99398.78;;;9.77;92.13
84703;BME280;74927;50.988;11.318;2024-02-15T05:43:39;99389.25;;;9.77;92.03
84703;BME280;74927;50.988;11.318;2024-02-15T05:46:07;99392.78;;;9.81;92.03
84703;BME280;74927;50.988;11.318;2024-02-15T05:48:33;99395.34;;;9.79;91.98
84703;BME280;74927;50.988;11.318;2024-02-15T05:51:06;99387.50;;;9.76;91.93
84703;BME280;74927;50.988;11.318;2024-02-15T05:53:33;99390.94;;;9.75;91.93
84703;BME280;74927;50.988;11.318;2024-02-15T05:56:05;99392.66;;;9.75;91.63
84703;BME280;74927;50.988;11.318;2024-02-15T05:58:35;99395.31;;;9.76;92.14
84703;BME280;74927;50.988;11.318;2024-02-15T06:01:03;99400.50;;;9.78;91.96
84703;BME280;74927;50.988;11.318;2024-02-15T06:03:32;99397.06;;;9.79;92.05
84703;BME280;74927;50.988;11.318;2024-02-15T06:05:59;99393.56;;;9.77;91.89
84703;BME280;74927;50.988;11.318;2024-02-15T06:08:29;99392.72;;;9.78;91.60
84703;BME280;74927;50.988;11.318;2024-02-15T06:10:55;99392.72;;;9.76;92.09
84703;BME280;74927;50.988;11.318;2024-02-15T06:13:21;99393.69;;;9.83;91.63
84703;BME280;74927;50.988;11.318;2024-02-15T06:15:46;99389.28;;;9.79;91.57
84703;BME280;74927;50.988;11.318;2024-02-15T06:18:20;99399.56;;;9.74;92.06
84703;BME280;74927;50.988;11.318;2024-02-15T06:20:59;99399.50;;;9.69;92.52
84703;BME280;74927;50.988;11.318;2024-02-15T06:23:25;99399.50;;;9.69;92.02
84703;BME280;74927;50.988;11.318;2024-02-15T06:25:56;99402.94;;;9.70;92.19
84703;BME280;74927;50.988;11.318;2024-02-15T06:28:23;99393.44;;;9.69;92.45
84703;BME280;74927;50.988;11.318;2024-02-15T06:31:12;99398.59;;;9.67;92.18
84703;BME280;74927;50.988;11.318;2024-02-15T06:33:57;99403.72;;;9.64;92.80
84703;BME280;74927;50.988;11.318;2024-02-15T06:36:49;99410.72;;;9.68;92.20
84703;BME280;74927;50.988;11.318;2024-02-15T06:39:34;99416.03;;;9.75;92.55
84703;BME280;74927;50.988;11.318;2024-02-15T06:42:13;99418.69;;;9.78;92.78
84703;BME280;74927;50.988;11.318;2024-02-15T06:44:47;99414.72;;;9.95;91.86
84703;BME280;74927;50.988;11.318;2024-02-15T06:47:14;99414.03;;;10.07;90.86
84703;BME280;74927;50.988;11.318;2024-02-15T06:49:42;99409.78;;;10.10;91.56
84703;BME280;74927;50.988;11.318;2024-02-15T06:52:09;99409.69;;;10.04;91.62
84703;BME280;74927;50.988;11.318;2024-02-15T06:54:39;99406.22;;;10.05;91.27
84703;BME280;74927;50.988;11.318;2024-02-15T06:57:05;99409.78;;;10.10;90.70
84703;BME280;74927;50.988;11.318;2024-02-15T06:59:31;99426.09;;;10.03;91.47
84703;BME280;74927;50.988;11.318;2024-02-15T07:02:01;99416.59;;;10.05;91.70
84703;BME280;74927;50.988;11.318;2024-02-15T07:04:27;99420.09;;;10.07;91.00
84703;BME280;74927;50.988;11.318;2024-02-15T07:06:53;99422.66;;;10.06;90.97
84703;BME280;74927;50.988;11.318;2024-02-15T07:09:20;99423.66;;;10.12;90.90
84703;BME280;74927;50.988;11.318;2024-02-15T07:11:47;99418.41;;;10.09;91.76
84703;BME280;74927;50.988;11.318;2024-02-15T07:14:13;99410.59;;;10.06;91.67
84703;BME280;74927;50.988;11.318;2024-02-15T07:16:39;99421.19;;;10.19;91.16
84703;BME280;74927;50.988;11.318;2024-02-15T07:19:05;99410.75;;;10.17;90.63
84703;BME280;74927;50.988;11.318;2024-02-15T07:21:34;99414.28;;;10.21;90.77
84703;BME280;74927;50.988;11.318;2024-02-15T07:24:00;99408.59;;;10.40;89.51
84703;BME280;74927;50.988;11.318;2024-02-15T07:26:25;99410.47;;;10.50;88.82
84703;BME280;74927;50.988;11.318;2024-02-15T07:28:54;99415.66;;;10.49;88.69
84703;BME280;74927;50.988;11.318;2024-02-15T07:31:21;99423.41;;;10.44;88.91
84703;BME280;74927;50.988;11.318;2024-02-15T07:33:50;99418.13;;;10.41;89.63
84703;BME280;74927;50.988;11.318;2024-02-15T07:36:20;99425.91;;;10.38;90.25
84703;BME280;74927;50.988;11.318;2024-02-15T07:38:47;99425.88;;;10.37;89.64
84703;BME280;74927;50.988;11.318;2024-02-15T07:41:14;99424.97;;;10.35;90.19
84703;BME280;74927;50.988;11.318;2024-02-15T07:43:40;99426.00;;;10.44;89.17
84703;BME280;74927;50.988;11.318;2024-02-15T07:46:06;99428.75;;;10.54;88.87
84703;BME280;74927;50.988;11.318;2024-02-15T07:48:32;99429.44;;;10.43;88.92
84703;BME280;74927;50.988;11.318;2024-02-15T07:50:57;99428.91;;;10.63;88.63
84703;BME280;74927;50.988;11.318;2024-02-15T07:53:24;99425.50;;;10.67;88.68
84703;BME280;74927;50.988;11.318;2024-02-15T07:55:50;99427.94;;;10.58;88.83
84703;BME280;74927;50.988;11.318;2024-02-15T07:58:15;99429.66;;;10.56;88.82
84703;BME280;74927;50.988;11.318;2024-02-15T08:00:44;99434.81;;;10.54;89.00
84703;BME280;74927;50.988;11.318;2024-02-15T08:03:10;99431.41;;;10.58;88.94
84703;BME280;74927;50.988;11.318;2024-02-15T08:05:35;99429.72;;;10.62;89.02
84703;BME280;74927;50.988;11.318;2024-02-15T08:08:02;99428.09;;;10.67;88.42
84703;BME280;74927;50.988;11.318;2024-02-15T08:10:29;99435.16;;;10.74;89.02
84703;BME280;74927;50.988;11.318;2024-02-15T08:12:54;99424.88;;;10.83;87.97
84703;BME280;74927;50.988;11.318;2024-02-15T08:15:23;99428.28;;;10.78;88.36
84703;BME280;74927;50.988;11.318;2024-02-15T08:17:49;99418.75;;;10.80;88.43
84703;BME280;74927;50.988;11.318;2024-02-15T08:20:15;99418.88;;;10.87;87.50
84703;BME280;74927;50.988;11.318;2024-02-15T08:22:47;99421.63;;;10.98;87.15
84703;BME280;74927;50.988;11.318;2024-02-15T08:25:13;99413.84;;;11.01;87.58
84703;BME280;74927;50.988;11.318;2024-02-15T08:27:42;99410.44;;;11.05;86.63
84703;BME280;74927;50.988;11.318;2024-02-15T08:30:12;99408.88;;;11.17;87.41
84703;BME280;74927;50.988;11.318;2024-02-15T08:32:41;99417.63;;;11.22;87.01
84703;BME280;74927;50.988;11.318;2024-02-15T08:35:08;99403.84;;;11.31;86.35
84703;BME280;74927;50.988;11.318;2024-02-15T08:37:38;99401.38;;;11.40;87.18
84703;BME280;74927;50.988;11.318;2024-02-15T08:40:05;99404.09;;;11.49;86.56
84703;BME280;74927;50.988;11.318;2024-02-15T08:42:40;99398.16;;;11.61;86.54
84703;BME280;74927;50.988;11.318;2024-02-15T08:45:06;99392.97;;;11.64;85.07
84703;BME280;74927;50.988;11.318;2024-02-15T08:47:41;99393.88;;;11.66;85.21
84703;BME280;74927;50.988;11.318;2024-02-15T08:50:08;99394.78;;;11.70;85.51
84703;BME280;74927;50.988;11.318;2024-02-15T08:52:37;99399.16;;;11.74;86.68
84703;BME280;74927;50.988;11.318;2024-02-15T08:55:06;99400.97;;;11.79;85.54
84703;BME280;74927;50.988;11.318;2024-02-15T08:57:33;99400.19;;;11.86;84.39
84703;BME280;74927;50.988;11.318;2024-02-15T08:59:59;99404.59;;;11.92;84.93
84703;BME280;74927;50.988;11.318;2024-02-15T09:02:24;99406.41;;;11.98;85.04
84703;BME280;74927;50.988;11.318;2024-02-15T09:04:49;99407.22;;;11.95;84.86
84703;BME280;74927;50.988;11.318;2024-02-15T09:07:15;99411.66;;;12.02;84.29
84703;BME280;74927;50.988;11.318;2024-02-15T09:09:40;99410.81;;;12.06;84.07
84703;BME280;74927;50.988;11.318;2024-02-15T09:12:06;99418.59;;;12.00;83.70
84703;BME280;74927;50.988;11.318;2024-02-15T09:14:33;99424.66;;;12.01;84.89
84703;BME280;74927;50.988;11.318;2024-02-15T09:16:59;99417.81;;;12.09;83.67
84703;BME280;74927;50.988;11.318;2024-02-15T09:19:25;99408.25;;;12.10;84.51
84703;BME280;74927;50.988;11.318;2024-02-15T09:21:51;99410.84;;;12.10;84.08
84703;BME280;74927;50.988;11.318;2024-02-15T09:24:19;99409.09;;;12.05;84.23
84703;BME280;74927;50.988;11.318;2024-02-15T09:26:44;99406.50;;;12.07;83.85
84703;BME280;74927;50.988;11.318;2024-02-15T09:29:10;99410.94;;;12.17;84.49
84703;BME280;74927;50.988;11.318;2024-02-15T09:31:35;99407.50;;;12.23;83.07
84703;BME280;74927;50.988;11.318;2024-02-15T09:34:02;99409.31;;;12.30;82.34
84703;BME280;74927;50.988;11.318;2024-02-15T09:36:34;99407.59;;;12.32;83.03
84703;BME280;74927;50.988;11.318;2024-02-15T09:38:59;99408.38;;;12.25;82.32
84703;BME280;74927;50.988;11.318;2024-02-15T09:41:25;99398.78;;;12.16;83.61
84703;BME280;74927;50.988;11.318;2024-02-15T09:43:50;99403.22;;;12.30;82.97
84703;BME280;74927;50.988;11.318;2024-02-15T09:46:17;99403.31;;;12.39;83.38
84703;BME280;74927;50.988;11.318;2024-02-15T09:48:47;99399.00;;;12.45;82.40
84703;BME280;74927;50.988;11.318;2024-02-15T09:51:15;99397.28;;;12.48;81.86
84703;BME280;74927;50.988;11.318;2024-02-15T09:53:44;99402.53;;;12.51;82.58
84703;BME280;74927;50.988;11.318;2024-02-15T09:56:10;99394.66;;;12.44;82.30
84703;BME280;74927;50.988;11.318;2024-02-15T09:58:38;99395.56;;;12.48;82.47
84703;BME280;74927;50.988;11.318;2024-02-15T10:01:04;99390.34;;;12.47;81.91
84703;BME280;74927;50.988;11.318;2024-02-15T10:03:37;99388.69;;;12.59;81.53
84703;BME280;74927;50.988;11.318;2024-02-15T10:06:02;99397.38;;;12.57;81.68
84703;BME280;74927;50.988;11.318;2024-02-15T10:08:29;99384.28;;;12.55;82.62
84703;BME280;74927;50.988;11.318;2024-02-15T10:11:08;99382.56;;;12.54;83.01
84703;BME280;74927;50.988;11.318;2024-02-15T10:13:36;99380.00;;;12.62;81.04
84703;BME280;74927;50.988;11.318;2024-02-15T10:16:17;99382.59;;;12.59;82.40
84703;BME280;74927;50.988;11.318;2024-02-15T10:18:44;99387.78;;;12.57;82.18
84703;BME280;74927;50.988;11.318;2024-02-15T10:21:09;99393.09;;;12.68;81.48
84703;BME280;74927;50.988;11.318;2024-02-15T10:23:36;99393.91;;;12.58;83.11
84703;BME280;74927;50.988;11.318;2024-02-15T10:26:19;99390.41;;;12.56;82.12
84703;BME280;74927;50.988;11.318;2024-02-15T10:28:44;99392.13;;;12.52;82.75
84703;BME280;74927;50.988;11.318;2024-02-15T10:31:10;99395.63;;;12.57;82.77
84703;BME280;74927;50.988;11.318;2024-02-15T10:33:38;99388.69;;;12.58;82.35
84703;BME280;74927;50.988;11.318;2024-02-15T10:36:05;99390.56;;;12.77;80.91
84703;BME280;74927;50.988;11.318;2024-02-15T10:38:32;99385.34;;;12.77;81.81
84703;BME280;74927;50.988;11.318;2024-02-15T10:41:03;99382.72;;;12.77;81.64
84703;BME280;74927;50.988;11.318;2024-02-15T10:43:30;99381.81;;;12.74;82.36
84703;BME280;74927;50.988;11.318;2024-02-15T10:45:58;99377.44;;;12.70;81.48
84703;BME280;74927;50.988;11.318;2024-02-15T10:48:24;99369.66;;;12.77;81.56
84703;BME280;74927;50.988;11.318;2024-02-15T10:50:51;99363.63;;;12.84;82.44
84703;BME280;74927;50.988;11.318;2024-02-15T10:58:33;99360.25;;;12.99;80.66
84703;BME280;74927;50.988;11.318;2024-02-15T11:01:06;99345.47;;;13.06;80.03
84703;BME280;74927;50.988;11.318;2024-02-15T11:03:44;99341.13;;;13.05;80.55
84703;BME280;74927;50.988;11.318;2024-02-15T11:06:15;99338.59;;;13.27;80.04
84703;BME280;74927;50.988;11.318;2024-02-15T11:08:42;99330.84;;;13.40;78.80
84703;BME280;74927;50.988;11.318;2024-02-15T11:11:09;99319.59;;;13.55;77.73
84703;BME280;74927;50.988;11.318;2024-02-15T11:13:37;99308.25;;;14.81;73.42
84703;BME280;74927;50.988;11.318;2024-02-15T11:16:03;99305.69;;;16.29;69.11
84703;BME280;74927;50.988;11.318;2024-02-15T11:18:47;99307.78;;;15.84;69.27
84703;BME280;74927;50.988;11.318;2024-02-15T11:24:26;99295.13;;;16.32;67.29
84703;BME280;74927;50.988;11.318;2024-02-15T11:26:58;99288.41;;;16.95;65.57
84703;BME280;74927;50.988;11.318;2024-02-15T11:29:49;99296.41;;;16.83;64.55
84703;BME280;74927;50.988;11.318;2024-02-15T11:35:20;99291.78;;;16.15;65.75
84703;BME280;74927;50.988;11.318;2024-02-15T11:43:06;99290.56;;;15.34;69.36
84703;BME280;74927;50.988;11.318;2024-02-15T11:45:34;99287.00;;;15.50;68.77
84703;BME280;74927;50.988;11.318;2024-02-15T11:48:08;99280.81;;;15.58;68.06
84703;BME280;74927;50.988;11.318;2024-02-15T11:50:37;99278.97;;;15.72;67.85
84703;BME280;74927;50.988;11.318;2024-02-15T11:53:05;99285.13;;;15.69;68.24
84703;BME280;74927;50.988;11.318;2024-02-15T11:55:35;99282.41;;;15.86;68.11
84703;BME280;74927;50.988;11.318;2024-02-15T11:58:02;99286.78;;;15.86;67.79
84703;BME280;74927;50.988;11.318;2024-02-15T12:00:48;99284.13;;;15.90;66.88
84703;BME280;74927;50.988;11.318;2024-02-15T12:03:32;99282.63;;;15.49;68.26
84703;BME280;74927;50.988;11.318;2024-02-15T12:06:19;99275.59;;;15.54;68.62
84703;BME280;74927;50.988;11.318;2024-02-15T12:09:03;99266.69;;;15.86;68.29
84703;BME280;74927;50.988;11.318;2024-02-15T12:11:47;99270.13;;;15.91;65.67
84703;BME280;74927;50.988;11.318;2024-02-15T12:14:31;99266.78;;;15.66;65.33
84703;BME280;74927;50.988;11.318;2024-02-15T12:17:15;99263.41;;;15.50;66.06
84703;BME280;74927;50.988;11.318;2024-02-15T12:20:03;99250.56;;;16.26;62.67
84703;BME280;74927;50.988;11.318;2024-02-15T12:22:39;99252.84;;;16.62;61.63
84703;BME280;74927;50.988;11.318;2024-02-15T12:25:14;99249.84;;;17.59;59.51
84703;BME280;74927;50.988;11.318;2024-02-15T12:28:00;99251.84;;;18.01;57.66
84703;BME280;74927;50.988;11.318;2024-02-15T12:30:34;99258.13;;;17.33;59.74
84703;BME280;74927;50.988;11.318;2024-02-15T12:33:13;99255.25;;;17.50;59.90
84703;BME280;74927;50.988;11.318;2024-02-15T12:35:45;99251.16;;;17.90;58.54
84703;BME280;74927;50.988;11.318;2024-02-15T12:38:12;99246.03;;;17.20;60.40
84703;BME280;74927;50.988;11.318;2024-02-15T12:40:41;99257.25;;;16.60;62.47
84703;BME280;74927;50.988;11.318;2024-02-15T12:43:08;99259.22;;;16.35;63.29
84703;BME280;74927;50.988;11.318;2024-02-15T12:45:38;99260.50;;;15.92;64.83
84703;BME280;74927;50.988;11.318;2024-02-15T12:48:05;99264.00;;;15.91;64.94
84703;BME280;74927;50.988;11.318;2024-02-15T12:50:37;99254.50;;;15.76;66.02
84703;BME280;74927;50.988;11.318;2024-02-15T12:53:06;99269.41;;;15.68;67.39
84703;BME280;74927;50.988;11.318;2024-02-15T12:56:08;99259.19;;;15.23;67.51
84703;BME280;74927;50.988;11.318;2024-02-15T12:58:39;99260.75;;;15.53;67.33
84703;BME280;74927;50.988;11.318;2024-02-15T13:01:05;99258.16;;;15.47;67.16
84703;BME280;74927;50.988;11.318;2024-02-15T13:03:58;99252.88;;;15.52;67.18
84703;BME280;74927;50.988;11.318;2024-02-15T13:06:23;99253.78;;;15.51;66.89
84703;BME280;74927;50.988;11.318;2024-02-15T13:08:49;99256.56;;;15.23;67.37
84703;BME280;74927;50.988;11.318;2024-02-15T13:11:15;99250.41;;;15.26;66.77
84703;BME280;74927;50.988;11.318;2024-02-15T13:13:44;99258.31;;;15.23;67.22
84703;BME280;74927;50.988;11.318;2024-02-15T13:16:09;99252.06;;;15.42;66.24
84703;BME280;74927;50.988;11.318;2024-02-15T13:18:35;99250.47;;;15.20;67.40
84703;BME280;74927;50.988;11.318;2024-02-15T13:21:01;99244.34;;;15.19;67.50
84703;BME280;74927;50.988;11.318;2024-02-15T13:23:27;99247.88;;;15.16;67.54